createdAt,value
2022-10-19T00:01:32.992Z,100.00
2022-10-19T00:16:38.569Z,100.00
2022-10-19T00:31:42.053Z,100.00
2022-10-19T00:46:48.970Z,100.00
2022-10-19T01:01:53.963Z,100.00
2022-10-19T01:17:15.300Z,100.00
2022-10-19T01:32:46.507Z,100.00
2022-10-19T01:47:59.719Z,100.00
2022-10-19T02:03:05.892Z,100.00
2022-10-19T02:18:12.913Z,100.00
2022-10-19T02:33:16.512Z,100.00
2022-10-19T02:48:23.588Z,100.00
2022-10-19T03:03:26.803Z,100.00
2022-10-19T03:18:29.968Z,100.00
2022-10-19T03:33:32.905Z,100.00
2022-10-19T03:48:36.411Z,100.00
2022-10-19T04:03:40.150Z,100.00
2022-10-19T04:18:43.429Z,100.00
2022-10-19T04:48:55.598Z,100.00
2022-10-19T05:04:01.980Z,100.00
2022-10-19T05:19:05.470Z,100.00
2022-10-19T05:34:08.920Z,100.00
2022-10-19T05:50:11.169Z,100.00
2022-10-19T06:05:14.175Z,100.00
2022-10-19T06:20:17.292Z,100.00
2022-10-19T06:35:21.005Z,100.00
2022-10-19T06:50:24.472Z,100.00
2022-10-19T07:05:28.550Z,100.00
2022-10-19T07:20:31.964Z,100.00
2022-10-19T07:35:37.045Z,100.00
2022-10-19T07:50:40.445Z,100.00
2022-10-19T08:05:43.918Z,100.00
2022-10-19T08:20:47.800Z,100.00
2022-10-19T08:35:51.076Z,100.00
2022-10-19T08:50:55.897Z,100.00
2022-10-19T09:06:08.919Z,100.00
2022-10-19T09:21:30.150Z,100.00
2022-10-19T09:36:50.930Z,100.00
2022-10-19T09:51:55.414Z,93.63
2022-10-19T10:06:59.599Z,85.16
2022-10-19T10:22:05.223Z,76.96
2022-10-19T10:37:18.546Z,72.99
2022-10-19T10:52:22.171Z,73.31
2022-10-19T11:07:28.018Z,75.41
2022-10-19T11:23:19.527Z,74.32
2022-10-19T11:38:49.908Z,74.73
2022-10-19T11:54:24.665Z,75.13
2022-10-19T12:09:38.738Z,75.64
2022-10-19T12:24:42.179Z,77.10
2022-10-19T12:40:07.889Z,76.54
2022-10-19T12:55:35.048Z,73.41
2022-10-19T13:10:38.658Z,67.30
2022-10-19T13:25:43.356Z,57.78
2022-10-19T13:40:49.715Z,57.43
2022-10-19T13:56:17.007Z,52.43
2022-10-19T14:11:27.895Z,48.03
2022-10-19T14:26:31.578Z,52.78
2022-10-19T14:41:37.387Z,58.14
2022-10-19T14:57:11.372Z,60.17
2022-10-19T15:12:22.699Z,57.95
2022-10-19T15:27:37.832Z,54.57
2022-10-19T15:42:49.265Z,56.37
2022-10-19T15:57:59.432Z,60.03
2022-10-19T16:13:03.187Z,62.87
2022-10-19T16:28:06.887Z,64.64
2022-10-19T16:43:10.163Z,66.13
2022-10-19T16:58:13.432Z,67.39
2022-10-19T17:13:16.811Z,68.32
2022-10-19T17:28:22.975Z,69.72
2022-10-19T17:43:29.627Z,70.68
2022-10-19T17:58:39.112Z,72.26
2022-10-19T18:13:44.916Z,73.46
2022-10-19T18:28:54.317Z,74.63
2022-10-19T18:44:02.307Z,76.83
2022-10-19T18:59:07.937Z,77.75
2022-10-19T19:14:17.769Z,79.05
2022-10-19T19:29:22.325Z,79.59
2022-10-19T19:44:29.800Z,80.12
2022-10-19T19:59:32.919Z,80.71
2022-10-19T20:14:36.218Z,80.97
2022-10-19T20:29:39.580Z,81.81
2022-10-19T20:44:44.340Z,83.81
2022-10-19T20:59:49.274Z,85.09
2022-10-19T21:14:52.387Z,85.39
2022-10-19T21:29:55.793Z,86.50
2022-10-19T21:45:06.296Z,87.82
2022-10-19T22:00:21.119Z,88.92
2022-10-19T22:15:24.018Z,89.84
2022-10-19T22:30:27.592Z,90.17
2022-10-19T22:45:30.836Z,90.55
2022-10-19T23:00:33.925Z,90.59
2022-10-19T23:15:40.361Z,90.88
2022-10-19T23:30:44.956Z,91.07
2022-10-19T23:45:48.124Z,91.37
